Terminal Aerodrome Forecast
Issued by NWS

Home | Current Version | Previous Version | Text Only | Print | Product List | Glossary On
Versions: 1 2 3 4 5 6 7 8 9 10 11 12 13 14 15 16 17 18 19 20 21 22 23 24 25 26 27 28 29 30 31 32
000
FTUS44 KMAF 220700 AAA
TAFCNM
TAF AMD
KCNM 220701Z 2207/2306 14007KT P6SM -SHRA FEW020 BKN040
      TEMPO 2207/2211 6SM -SHRA BR OVC010
     FM221700 15006KT P6SM BKN050
     FM230000 18005KT P6SM SCT050=

USA.gov is the U.S. government's official web portal to all federal, state and local government web resources and services.